Sauk Centre, MN

2:47 PM CST on November 24, 2014 (GMT -0600)
Sauk Centre | Change Station
CLOSE
Current Station
Airport
Location: Sauk Centre,
Elevation: 1240 ft
Nearby Weather Stations

Elev 1240 ft 45.71 °N, 94.93 °W | Updated 15 minutes ago

Overcast
Overcast
13 °F
Feels Like -6 °F
N
22
Wind Variable Wind from NW

Today
High -- | Low -- °F
--% Chance of Precip.
Yesterday
High -- | Low -- °F
Precip. -- in
7:31 AM 4:41 PM
Waxing Crescent, 7% visible
Pressure 29.64 in
Visibility 10.0 miles
Clouds Scattered Clouds 1400 ft
Scattered Clouds 1900 ft
Overcast 8500 ft
Windchill -6 °F
Dew Point 6 °F
Humidity 74%
Rainfall 0.00 in
Snow Depth Not available.
UV 0 out of 12
Pollen .10 out of 12
Air Quality Not available.
Flu Activity Not available.
METAR KD39 242032Z AUTO 31019KT 10SM SCT014 SCT019 OVC085 M11/M15 A2964 RMK AO2 T11081146

More Conditions Fewer Conditions

Pressure 29.64 in
Visibility 10.0 miles
Clouds Scattered Clouds 1400 ft
Scattered Clouds 1900 ft
Overcast 8500 ft
Windchill -6 °F
Dew Point 6 °F
Humidity 74%
Rainfall 0.00 in
Snow Depth Not available.
UV 0 out of 12
Pollen .10 out of 12
Air Quality Not available.
Flu Activity Not available.
METAR KD39 242032Z AUTO 31019KT 10SM SCT014 SCT019 OVC085 M11/M15 A2964 RMK AO2 T11081146

More Conditions Fewer Conditions

10-Day Weather Forecast

Almanac

Astronomy

Nov. 24, 2014 Rise Set
Actual Time
Civil Twilight
Nautical Twilight
Astronomical Twilight
Moon
Length of Visible Light
Length of Day
Tomorrow will be .
, % of the Moon is Illuminated

Today's Extremes

State Highs State Lows

Community

WunderPhotos

Upload Photos

1,773,410 photos uploaded!

WunderBlogs® & News

Nearby

Air Quality

  Air Quality AQ Index Pollutant
Not available.

Snow Depth

Station Depth Elevation

Earthquake Activity

City Distance Mag. Time & Date
Minimum magnitude displayed is 2.5.

Coastal Water Temperatures

Place Temperature

Nearby Weather Stations